createdAt,value
2017-05-20T00:00:00.207Z,62.3
2017-05-20T00:00:12.650Z,62.2
2017-05-20T00:00:25.529Z,61.98
2017-05-20T00:00:39.023Z,61.91
2017-05-20T00:00:52.423Z,61.79
2017-05-20T00:01:04.940Z,61.91
2017-05-20T00:01:18.388Z,61.82
2017-05-20T00:01:31.793Z,61.91
2017-05-20T00:01:44.249Z,61.91
2017-05-20T00:01:58.774Z,61.82
2017-05-20T00:02:11.298Z,61.69
2017-05-20T00:02:24.467Z,61.53
2017-05-20T00:02:37.536Z,61.82
2017-05-20T00:02:50.666Z,61.82
2017-05-20T00:03:03.251Z,61.88
2017-05-20T00:03:16.149Z,62.01
2017-05-20T00:03:29.932Z,62.07
2017-05-20T00:03:42.951Z,61.79
2017-05-20T00:03:55.458Z,61.69
2017-05-20T00:04:08.109Z,61.82
2017-05-20T00:04:21.182Z,61.88
2017-05-20T00:04:34.848Z,61.69
2017-05-20T00:04:48.555Z,62.1
2017-05-20T00:05:01.601Z,61.88
2017-05-20T00:05:13.741Z,61.6
2017-05-20T00:05:26.698Z,61.82
2017-05-20T00:05:40.077Z,61.5
2017-05-20T00:05:52.404Z,61.6
2017-05-20T00:06:05.307Z,61.5
2017-05-20T00:06:17.715Z,61.5
2017-05-20T00:06:30.069Z,61.6
2017-05-20T00:06:43.716Z,61.15
2017-05-20T00:06:57.364Z,61.31
2017-05-20T00:07:09.941Z,61.02
2017-05-20T00:07:23.703Z,61.11
2017-05-20T00:07:37.228Z,61.31
2017-05-20T00:07:50.354Z,61.11
2017-05-20T00:08:03.326Z,61.02
2017-05-20T00:08:16.361Z,60.73
2017-05-20T00:08:30.056Z,60.54
2017-05-20T00:08:43.358Z,60.28
2017-05-20T00:08:56.546Z,60.35
2017-05-20T00:09:09.543Z,60.09
2017-05-20T00:09:21.377Z,60.28
2017-05-20T00:09:34.900Z,60.16
2017-05-20T00:09:48.327Z,60.28
2017-05-20T00:10:01.736Z,59.8
2017-05-20T00:10:14.125Z,60.16
2017-05-20T00:10:27.517Z,60.16
2017-05-20T00:10:41.032Z,60.09
2017-05-20T00:10:54.448Z,60.06
2017-05-20T00:11:07.400Z,59.97
2017-05-20T00:11:20.812Z,59.87
2017-05-20T00:11:39.291Z,59.77
2017-05-20T00:11:52.237Z,59.68
2017-05-20T00:12:05.259Z,59.48
2017-05-20T00:12:18.648Z,59.48
2017-05-20T00:12:32.094Z,59.8
2017-05-20T00:12:45.431Z,59.58
2017-05-20T00:12:58.578Z,59.48
2017-05-20T00:13:10.957Z,59.71
2017-05-20T00:13:24.395Z,59.39
2017-05-20T00:13:37.772Z,59.39
2017-05-20T00:13:50.683Z,59.48
2017-05-20T00:14:04.214Z,59.3
2017-05-20T00:14:17.677Z,59.33
2017-05-20T00:14:30.545Z,59.39
2017-05-20T00:14:43.987Z,59.2
2017-05-20T00:14:56.881Z,59.11
2017-05-20T00:15:08.717Z,59.11
2017-05-20T00:15:22.155Z,58.91
2017-05-20T00:15:34.539Z,59.3
2017-05-20T00:15:47.979Z,59.3
2017-05-20T00:16:00.603Z,58.91
2017-05-20T00:16:12.973Z,59.33
2017-05-20T00:16:27.189Z,59.48
2017-05-20T00:16:42.310Z,59.3
2017-05-20T00:16:56.119Z,59.39
2017-05-20T00:17:09.108Z,59.2
2017-05-20T00:17:22.382Z,59.3
2017-05-20T00:17:34.774Z,59.39
2017-05-20T00:17:48.227Z,59.3
2017-05-20T00:18:01.663Z,59.3
2017-05-20T00:18:14.599Z,59.3
2017-05-20T00:18:26.956Z,59.01
2017-05-20T00:18:39.945Z,59.01
2017-05-20T00:18:52.817Z,59.11
2017-05-20T00:19:06.286Z,58.91
2017-05-20T00:19:19.196Z,58.91
2017-05-20T00:19:32.638Z,59.11
2017-05-20T00:19:45.626Z,58.91
2017-05-20T00:19:59.104Z,58.81
2017-05-20T00:20:11.197Z,58.62
2017-05-20T00:20:23.304Z,58.62
2017-05-20T00:20:36.781Z,58.81
2017-05-20T00:20:50.200Z,58.62
2017-05-20T00:21:02.622Z,58.72
2017-05-20T00:21:15.502Z,58.62
2017-05-20T00:21:28.911Z,58.53
2017-05-20T00:21:41.297Z,58.44
2017-05-20T00:21:54.765Z,58.24
2017-05-20T00:22:07.191Z,58.34
2017-05-20T00:22:19.531Z,58.53
2017-05-20T00:22:32.966Z,58.44
2017-05-20T00:22:45.349Z,58.44
2017-05-20T00:22:59.089Z,58.44
2017-05-20T00:23:12.554Z,58.34
2017-05-20T00:23:26.019Z,58.24
2017-05-20T00:23:39.539Z,58.34
2017-05-20T00:23:52.869Z,58.44
2017-05-20T00:24:06.361Z,58.44
2017-05-20T00:24:19.262Z,58.53
2017-05-20T00:24:33.004Z,58.44
2017-05-20T00:24:46.526Z,58.15
2017-05-20T00:24:59.991Z,58.05
2017-05-20T00:25:12.949Z,57.86
2017-05-20T00:25:31.478Z,58.15
2017-05-20T00:25:44.505Z,57.95
2017-05-20T00:25:57.918Z,57.95
2017-05-20T00:26:11.357Z,58.15
2017-05-20T00:26:24.292Z,58.15
2017-05-20T00:26:36.683Z,58.15
2017-05-20T00:26:49.592Z,58.05
2017-05-20T00:27:03.226Z,58.05
2017-05-20T00:27:16.389Z,57.86
2017-05-20T00:27:29.790Z,57.57
2017-05-20T00:28:04.971Z,57.48
2017-05-20T00:28:18.218Z,57.57
2017-05-20T00:28:31.154Z,57.38
2017-05-20T00:28:44.026Z,57.48
2017-05-20T00:28:57.002Z,57.28
2017-05-20T00:29:09.429Z,57.19
2017-05-20T00:29:22.312Z,57.09
2017-05-20T00:29:35.827Z,57.19
2017-05-20T00:29:48.160Z,57.09
2017-05-20T00:30:01.118Z,57.09
2017-05-20T00:30:14.590Z,56.9
2017-05-20T00:30:28.046Z,56.9
2017-05-20T00:30:41.027Z,56.99
2017-05-20T00:30:53.897Z,56.9
2017-05-20T00:31:06.743Z,56.99
2017-05-20T00:31:19.643Z,57.19
2017-05-20T00:31:33.078Z,57.09
2017-05-20T00:31:46.021Z,57.19
2017-05-20T00:31:59.377Z,57.09
2017-05-20T00:32:11.218Z,57.19
2017-05-20T00:32:24.109Z,57.28
2017-05-20T00:32:37.022Z,57.19
2017-05-20T00:32:50.558Z,56.81
2017-05-20T00:33:03.461Z,56.71
2017-05-20T00:33:16.396Z,56.61
2017-05-20T00:33:29.828Z,56.61
2017-05-20T00:33:42.974Z,56.23
2017-05-20T00:33:55.897Z,56.23
2017-05-20T00:34:08.722Z,56.61
2017-05-20T00:34:22.063Z,56.42
2017-05-20T00:34:36.718Z,56.32
2017-05-20T00:34:50.746Z,56.23
2017-05-20T00:35:03.110Z,56.13
2017-05-20T00:35:15.504Z,56.13
2017-05-20T00:35:27.846Z,56.13
2017-05-20T00:35:40.307Z,56.23
2017-05-20T00:35:53.776Z,56.23
2017-05-20T00:36:05.666Z,56.42
2017-05-20T00:36:18.546Z,55.85
2017-05-20T00:36:31.414Z,55.94
2017-05-20T00:36:44.293Z,55.94
2017-05-20T00:36:57.079Z,55.94
2017-05-20T00:37:09.940Z,56.04
2017-05-20T00:37:22.325Z,55.94
2017-05-20T00:37:35.796Z,55.94
2017-05-20T00:37:48.197Z,55.75
2017-05-20T00:38:01.367Z,55.85
2017-05-20T00:38:14.361Z,55.85
2017-05-20T00:38:27.803Z,56.04
2017-05-20T00:38:41.349Z,55.94
2017-05-20T00:38:55.008Z,55.94
2017-05-20T00:39:07.533Z,55.85
2017-05-20T00:39:20.252Z,56.04
2017-05-20T00:39:33.222Z,55.94
2017-05-20T00:39:45.155Z,56.13
2017-05-20T00:39:58.790Z,55.94
2017-05-20T00:40:11.249Z,55.94
2017-05-20T00:40:24.240Z,55.65
2017-05-20T00:40:37.224Z,55.75
2017-05-20T00:40:50.630Z,55.94
2017-05-20T00:41:03.554Z,55.75
2017-05-20T00:41:15.919Z,55.75
2017-05-20T00:41:29.365Z,55.65
2017-05-20T00:41:42.837Z,55.65
2017-05-20T00:41:55.829Z,55.85
2017-05-20T00:42:09.470Z,55.65
2017-05-20T00:42:22.392Z,55.94
2017-05-20T00:42:36.190Z,55.65
2017-05-20T00:42:50.420Z,55.56
2017-05-20T00:43:02.844Z,55.75
2017-05-20T00:43:16.250Z,55.56
2017-05-20T00:43:29.768Z,55.56
2017-05-20T00:44:15.306Z,55.56
2017-05-20T00:44:28.305Z,55.56
2017-05-20T00:45:00.906Z,55.65
2017-05-20T00:45:12.794Z,55.65
2017-05-20T00:45:25.149Z,55.46
2017-05-20T00:45:38.519Z,55.65
2017-05-20T00:45:53.433Z,55.65
2017-05-20T00:46:06.862Z,55.56
2017-05-20T00:46:20.272Z,55.56
2017-05-20T00:46:33.203Z,55.36
2017-05-20T00:46:46.629Z,55.56
2017-05-20T00:46:59.556Z,55.65
2017-05-20T00:47:13.722Z,55.56
2017-05-20T00:47:26.681Z,55.75
2017-05-20T00:47:40.219Z,55.46
2017-05-20T00:47:53.724Z,55.36
2017-05-20T00:48:06.630Z,55.46
2017-05-20T00:48:19.582Z,55.46
2017-05-20T00:48:32.501Z,55.56
2017-05-20T00:48:45.943Z,55.46
2017-05-20T00:48:58.909Z,55.46
2017-05-20T00:49:12.305Z,55.27
2017-05-20T00:49:26.917Z,55.46
2017-05-20T00:49:39.840Z,55.65
2017-05-20T00:49:53.313Z,55.36
2017-05-20T00:50:05.718Z,55.27
2017-05-20T00:50:17.608Z,55.27
2017-05-20T00:50:31.014Z,55.27
2017-05-20T00:50:44.075Z,55.08
2017-05-20T00:50:57.043Z,55.36
2017-05-20T00:51:10.554Z,55.36
2017-05-20T00:51:24.064Z,55.36
2017-05-20T00:51:36.379Z,55.27
2017-05-20T00:51:49.826Z,55.27
2017-05-20T00:52:02.745Z,55.27
2017-05-20T00:52:15.794Z,55.18
2017-05-20T00:52:29.352Z,55.18
2017-05-20T00:52:42.390Z,55.08
2017-05-20T00:52:55.262Z,55.08
2017-05-20T00:53:08.428Z,55.27
2017-05-20T00:53:21.347Z,54.99
2017-05-20T00:53:34.269Z,55.08
2017-05-20T00:53:47.149Z,55.18
2017-05-20T00:54:00.072Z,54.99
2017-05-20T00:54:12.397Z,54.99
2017-05-20T00:54:25.566Z,54.89
2017-05-20T00:54:38.466Z,54.86
2017-05-20T00:54:51.915Z,54.89
2017-05-20T00:55:05.294Z,54.89
2017-05-20T00:55:17.696Z,54.79
2017-05-20T00:55:30.620Z,54.89
2017-05-20T00:55:44.049Z,54.89
2017-05-20T00:55:56.999Z,54.89
2017-05-20T00:56:10.440Z,54.89
2017-05-20T00:56:23.005Z,54.79
2017-05-20T00:56:36.468Z,54.79
2017-05-20T00:56:50.612Z,54.7
2017-05-20T00:57:03.599Z,54.6
2017-05-20T00:57:16.849Z,54.6
2017-05-20T00:57:30.862Z,54.32
2017-05-20T00:57:44.134Z,54.6
2017-05-20T00:57:56.540Z,54.6
2017-05-20T00:58:08.927Z,54.41
2017-05-20T00:58:20.800Z,54.6
2017-05-20T00:58:34.230Z,54.48
2017-05-20T00:58:47.132Z,54.6
2017-05-20T00:59:00.041Z,54.22
2017-05-20T00:59:12.352Z,54.22
2017-05-20T00:59:25.265Z,54.22
2017-05-20T00:59:38.675Z,54.32
2017-05-20T00:59:52.090Z,53.83
2017-05-20T01:00:04.972Z,54.12
2017-05-20T01:00:17.869Z,54.03
2017-05-20T01:00:29.742Z,54.03
2017-05-20T01:00:42.087Z,54.12
2017-05-20T01:00:55.009Z,54.12
2017-05-20T01:01:08.454Z,54.12
2017-05-20T01:01:21.284Z,54.12
2017-05-20T01:01:34.669Z,54.12
2017-05-20T01:01:47.667Z,54.22
2017-05-20T01:02:01.074Z,54.22
2017-05-20T01:02:14.201Z,54.12
2017-05-20T01:02:27.644Z,54.12
2017-05-20T01:02:39.589Z,54.22
2017-05-20T01:02:53.041Z,54.22
2017-05-20T01:03:06.458Z,54.32
2017-05-20T01:03:19.328Z,53.64
2017-05-20T01:03:32.824Z,53.93
2017-05-20T01:03:46.196Z,53.55
2017-05-20T01:03:59.036Z,53.64
2017-05-20T01:04:12.470Z,53.64
2017-05-20T01:04:25.386Z,53.74
2017-05-20T01:04:37.756Z,53.36
2017-05-20T01:04:50.076Z,53.45
2017-05-20T01:05:02.944Z,53.16
2017-05-20T01:05:15.818Z,53.26
2017-05-20T01:05:29.270Z,53.64
2017-05-20T01:05:42.665Z,53.26
2017-05-20T01:05:56.085Z,53.26
2017-05-20T01:06:08.999Z,53.83
2017-05-20T01:06:21.418Z,53.16
2017-05-20T01:06:34.300Z,53.26
2017-05-20T01:06:47.705Z,53.26
2017-05-20T01:07:00.050Z,53.16
2017-05-20T01:07:12.437Z,53.16
2017-05-20T01:07:25.332Z,53.45
2017-05-20T01:07:37.782Z,52.78
2017-05-20T01:07:50.730Z,53.45
2017-05-20T01:08:03.668Z,53.55
2017-05-20T01:08:16.597Z,53.64
2017-05-20T01:08:29.957Z,53.16
2017-05-20T01:08:42.896Z,53.26
2017-05-20T01:08:56.348Z,53.26
2017-05-20T01:09:09.770Z,53.55
2017-05-20T01:09:22.753Z,53.26
2017-05-20T01:09:36.394Z,53.26
2017-05-20T01:09:50.111Z,53.26
2017-05-20T01:10:04.302Z,53.07
2017-05-20T01:10:17.249Z,53.26
2017-05-20T01:10:30.697Z,53.26
2017-05-20T01:10:44.368Z,53.45
2017-05-20T01:10:57.272Z,53.64
2017-05-20T01:11:09.655Z,53.45
2017-05-20T01:11:22.083Z,53.45
2017-05-20T01:11:35.655Z,53.64
2017-05-20T01:11:49.101Z,53.55
2017-05-20T01:12:02.543Z,53.45
2017-05-20T01:12:14.377Z,53.74
2017-05-20T01:12:27.213Z,53.55
2017-05-20T01:12:40.620Z,54.12
2017-05-20T01:12:54.231Z,54.12
2017-05-20T01:13:07.163Z,54.12
2017-05-20T01:13:20.129Z,53.93
2017-05-20T01:13:33.552Z,54.03
2017-05-20T01:13:46.445Z,54.12
2017-05-20T01:13:58.843Z,54.03
2017-05-20T01:14:12.251Z,54.12
2017-05-20T01:14:25.197Z,54.12
2017-05-20T01:14:38.627Z,54.03
2017-05-20T01:14:51.522Z,54.22
2017-05-20T01:15:03.983Z,54.12
2017-05-20T01:15:16.520Z,54.12
2017-05-20T01:15:30.054Z,54.12
2017-05-20T01:15:43.517Z,54.03
2017-05-20T01:15:56.926Z,54.22
2017-05-20T01:16:09.365Z,54.12
2017-05-20T01:16:21.679Z,54.22
2017-05-20T01:16:35.180Z,54.22
2017-05-20T01:16:47.023Z,54.12
2017-05-20T01:17:00.458Z,54.12
2017-05-20T01:17:13.897Z,54.22
2017-05-20T01:17:27.334Z,54.03
2017-05-20T01:17:40.291Z,53.81
2017-05-20T01:17:53.233Z,54.19
2017-05-20T01:18:06.647Z,53.64
2017-05-20T01:18:20.911Z,53.64
2017-05-20T01:18:33.907Z,53.81
2017-05-20T01:18:47.410Z,53.55
2017-05-20T01:19:00.927Z,53.71
2017-05-20T01:19:13.774Z,53.45
2017-05-20T01:19:27.189Z,53.71
2017-05-20T01:19:40.592Z,53.83
2017-05-20T01:19:53.992Z,53.64
2017-05-20T01:20:10.513Z,53.71
2017-05-20T01:20:23.155Z,53.71
2017-05-20T01:20:36.610Z,53.55
2017-05-20T01:20:48.471Z,53.55
2017-05-20T01:21:01.503Z,53.52
2017-05-20T01:21:14.939Z,53.71
2017-05-20T01:21:27.227Z,53.62
2017-05-20T01:21:40.199Z,53.62
2017-05-20T01:21:53.058Z,53.62
2017-05-20T01:22:05.963Z,53.33
2017-05-20T01:22:18.905Z,53.36
2017-05-20T01:22:31.780Z,53.55
2017-05-20T01:22:44.213Z,53.42
2017-05-20T01:22:57.726Z,53.52
2017-05-20T01:23:11.269Z,53.42
2017-05-20T01:23:24.705Z,53.33
2017-05-20T01:23:38.225Z,53.52
2017-05-20T01:23:51.128Z,53.26
2017-05-20T01:24:04.056Z,53.33
2017-05-20T01:24:17.504Z,53.26
2017-05-20T01:24:30.516Z,53.71
2017-05-20T01:24:44.402Z,53.81
2017-05-20T01:24:57.577Z,53.42
2017-05-20T01:25:09.894Z,53.45
2017-05-20T01:25:23.363Z,53.36
2017-05-20T01:25:36.320Z,53.26
2017-05-20T01:25:49.246Z,53.26
2017-05-20T01:26:01.662Z,53.07
2017-05-20T01:26:14.635Z,53.26
2017-05-20T01:26:27.626Z,52.97
2017-05-20T01:26:41.177Z,53.07
2017-05-20T01:26:54.056Z,53.26
2017-05-20T01:27:06.925Z,53.16
2017-05-20T01:27:26.477Z,53.07
2017-05-20T01:27:43.325Z,53.07
2017-05-20T01:27:56.940Z,53.36
2017-05-20T01:28:09.353Z,53.16
2017-05-20T01:28:22.857Z,53.14
2017-05-20T01:28:35.727Z,53.07
2017-05-20T01:28:49.177Z,53.36
2017-05-20T01:29:02.032Z,53.45
2017-05-20T01:29:15.388Z,53.83
2017-05-20T01:29:31.907Z,53.83
2017-05-20T01:29:45.329Z,53.64
2017-05-20T01:29:58.951Z,53.64
2017-05-20T01:30:11.940Z,53.74
2017-05-20T01:30:23.807Z,53.64
2017-05-20T01:30:36.650Z,53.16
2017-05-20T01:30:49.843Z,53.26
2017-05-20T01:31:03.263Z,53.64
2017-05-20T01:31:15.853Z,53.74
2017-05-20T01:31:28.805Z,53.64
2017-05-20T01:31:42.424Z,53.64
2017-05-20T01:31:55.315Z,53.26
2017-05-20T01:32:08.279Z,53.26
2017-05-20T01:32:21.803Z,53.64
2017-05-20T01:32:35.223Z,53.64
2017-05-20T01:32:48.206Z,53.16
2017-05-20T01:33:01.678Z,53.36
2017-05-20T01:33:15.064Z,53.26
2017-05-20T01:33:27.674Z,53.26
2017-05-20T01:33:41.094Z,53.26
2017-05-20T01:33:54.054Z,53.64
2017-05-20T01:34:09.009Z,53.16
2017-05-20T01:34:21.491Z,53.26
2017-05-20T01:34:34.460Z,53.26
2017-05-20T01:34:47.961Z,53.74
2017-05-20T01:35:01.346Z,53.26
2017-05-20T01:35:13.729Z,53.74
2017-05-20T01:35:27.114Z,53.16
2017-05-20T01:35:40.050Z,53.26
2017-05-20T01:35:52.998Z,53.16
2017-05-20T01:36:13.259Z,53.16
2017-05-20T01:36:26.177Z,53.26
2017-05-20T01:36:39.596Z,53.16
2017-05-20T01:36:53.002Z,53.26
2017-05-20T01:37:05.978Z,53.33
2017-05-20T01:37:18.379Z,53.26
2017-05-20T01:37:31.804Z,53.16
2017-05-20T01:37:45.707Z,53.36
2017-05-20T01:37:59.211Z,53.16
2017-05-20T01:38:12.168Z,53.16
2017-05-20T01:38:48.946Z,53.74
2017-05-20T01:39:02.340Z,53.71
2017-05-20T01:39:15.759Z,53.64
2017-05-20T01:39:28.195Z,53.26
2017-05-20T01:39:41.315Z,53.26
2017-05-20T01:39:54.712Z,53.26
2017-05-20T01:40:07.684Z,53.64
2017-05-20T01:40:21.191Z,53.74
2017-05-20T01:40:34.706Z,53.64
2017-05-20T01:40:47.125Z,53.64
2017-05-20T01:41:00.145Z,53.64
2017-05-20T01:41:12.555Z,53.64
2017-05-20T01:41:25.585Z,53.64
2017-05-20T01:41:38.681Z,53.64
2017-05-20T01:41:52.150Z,53.26
2017-05-20T01:42:05.230Z,53.62
2017-05-20T01:42:31.207Z,53.07
2017-05-20T01:42:53.154Z,53.23
2017-05-20T01:43:06.012Z,53.64
2017-05-20T01:43:19.581Z,53.33
2017-05-20T01:43:32.977Z,53.33
2017-05-20T01:43:45.808Z,53.71
2017-05-20T01:43:59.257Z,53.71
2017-05-20T01:44:11.584Z,53.71
2017-05-20T01:44:24.491Z,53.81
2017-05-20T01:44:37.857Z,53.23
2017-05-20T01:44:50.724Z,53.14
2017-05-20T01:45:03.694Z,53.52
2017-05-20T01:45:16.655Z,53.71
2017-05-20T01:45:30.056Z,53.33
2017-05-20T01:45:42.969Z,53.91
2017-05-20T01:45:58.940Z,53.23
2017-05-20T01:46:12.345Z,53.33
2017-05-20T01:46:25.197Z,53.33
2017-05-20T01:46:38.568Z,53.04
2017-05-20T01:46:50.922Z,53.33
2017-05-20T01:47:04.067Z,53.23
2017-05-20T01:47:17.031Z,53.23
2017-05-20T01:47:32.160Z,53.14
2017-05-20T01:47:45.650Z,53.04
2017-05-20T01:47:58.551Z,53.14
2017-05-20T01:48:12.035Z,53.04
2017-05-20T01:48:24.502Z,53.04
2017-05-20T01:48:37.639Z,52.85
2017-05-20T01:48:50.172Z,53.14
2017-05-20T01:49:03.625Z,53.04
2017-05-20T01:49:15.955Z,52.95
2017-05-20T01:49:29.179Z,53.14
2017-05-20T01:49:43.498Z,52.97
2017-05-20T01:49:56.417Z,53.04
2017-05-20T01:50:08.874Z,53.07
2017-05-20T01:50:21.333Z,52.95
2017-05-20T01:50:39.117Z,52.78
2017-05-20T01:50:52.627Z,52.78
2017-05-20T01:51:05.535Z,52.97
2017-05-20T01:51:18.931Z,52.97
2017-05-20T01:51:31.845Z,52.87
2017-05-20T01:51:45.291Z,53.07
2017-05-20T01:51:58.696Z,53.04
2017-05-20T01:52:12.137Z,53.14
2017-05-20T01:52:25.653Z,53.16
2017-05-20T01:52:38.512Z,52.87
2017-05-20T01:52:51.911Z,53.07
2017-05-20T01:53:04.875Z,53.16
2017-05-20T01:53:18.391Z,53.07
2017-05-20T01:53:31.922Z,53.07
2017-05-20T01:53:45.355Z,53.07
2017-05-20T01:53:58.244Z,53.07
2017-05-20T01:54:11.005Z,53.16
2017-05-20T01:54:24.481Z,53.16
2017-05-20T01:54:37.973Z,53.36
2017-05-20T01:54:51.109Z,53.45
2017-05-20T01:55:04.546Z,53.26
2017-05-20T01:55:18.094Z,53.26
2017-05-20T01:55:30.961Z,53.74
2017-05-20T01:55:42.278Z,53.14
2017-05-20T01:55:56.450Z,53.45
2017-05-20T01:56:08.851Z,53.36
2017-05-20T01:56:22.267Z,53.36
2017-05-20T01:56:36.892Z,53.74
2017-05-20T01:56:48.807Z,53.64
2017-05-20T01:57:01.689Z,53.64
2017-05-20T01:57:15.970Z,53.83
2017-05-20T01:57:29.324Z,53.45
2017-05-20T01:57:44.305Z,53.74
2017-05-20T01:57:57.754Z,54.12
2017-05-20T01:58:11.419Z,54.12
2017-05-20T01:58:23.114Z,54.03
2017-05-20T01:58:36.632Z,54.12
2017-05-20T01:58:49.515Z,54.12
2017-05-20T01:59:02.958Z,53.93
2017-05-20T01:59:16.336Z,54.12
2017-05-20T01:59:29.207Z,54.03
2017-05-20T01:59:41.631Z,54.03
2017-05-20T01:59:54.041Z,54.03
2017-05-20T02:00:06.858Z,54.03
2017-05-20T02:00:20.267Z,54.03
2017-05-20T02:00:33.695Z,53.93
2017-05-20T02:00:47.060Z,54.12
2017-05-20T02:01:00.487Z,53.93
2017-05-20T02:01:13.381Z,54.03
2017-05-20T02:01:26.264Z,54.03
2017-05-20T02:01:39.183Z,54.12
2017-05-20T02:01:52.096Z,54.03
2017-05-20T02:02:04.989Z,54.03
2017-05-20T02:02:17.361Z,54.03
2017-05-20T02:02:30.735Z,54.03
2017-05-20T02:02:43.039Z,54.03
2017-05-20T02:02:55.902Z,54.12
2017-05-20T02:03:08.843Z,54.22
2017-05-20T02:03:21.228Z,54.22
2017-05-20T02:03:34.065Z,54.12
2017-05-20T02:03:47.481Z,54.12
2017-05-20T02:04:00.442Z,54.03
2017-05-20T02:04:13.838Z,54.03
2017-05-20T02:04:27.205Z,54.12
2017-05-20T02:04:40.661Z,54.03
2017-05-20T02:04:54.062Z,54.03
2017-05-20T02:05:06.978Z,54.12
2017-05-20T02:05:20.316Z,53.93
2017-05-20T02:05:33.748Z,53.83
2017-05-20T02:05:47.176Z,53.93
2017-05-20T02:06:00.153Z,53.93
2017-05-20T02:06:11.451Z,54.12
2017-05-20T02:06:24.652Z,54.03
2017-05-20T02:06:38.135Z,54.03
2017-05-20T02:06:51.007Z,53.93
2017-05-20T02:07:03.915Z,54
2017-05-20T02:07:16.218Z,54.03
2017-05-20T02:07:29.681Z,54.03
2017-05-20T02:07:43.106Z,54.12
2017-05-20T02:07:56.527Z,53.93
2017-05-20T02:08:09.454Z,53.93
2017-05-20T02:08:22.333Z,54.03
2017-05-20T02:08:35.821Z,54.03
2017-05-20T02:08:47.728Z,53.93
2017-05-20T02:09:00.643Z,54.03
2017-05-20T02:09:14.052Z,54.03
2017-05-20T02:09:26.973Z,53.93
2017-05-20T02:09:39.857Z,53.93
2017-05-20T02:09:53.395Z,54.03
2017-05-20T02:10:06.329Z,54.03
2017-05-20T02:10:19.211Z,53.91
2017-05-20T02:10:32.639Z,54.12
2017-05-20T02:10:44.988Z,53.93
2017-05-20T02:10:58.462Z,53.93
2017-05-20T02:11:11.382Z,54.03
2017-05-20T02:11:23.613Z,54.22
2017-05-20T02:11:36.040Z,53.93
2017-05-20T02:11:48.354Z,54.12
2017-05-20T02:12:01.255Z,54.22
2017-05-20T02:12:13.841Z,54.12
2017-05-20T02:12:27.335Z,54.22
2017-05-20T02:12:40.256Z,54.22
2017-05-20T02:12:52.040Z,54.22
2017-05-20T02:13:04.933Z,54.22
2017-05-20T02:13:18.376Z,54.12
2017-05-20T02:13:31.752Z,54.22
2017-05-20T02:13:44.690Z,54.03
2017-05-20T02:13:57.126Z,54.22
2017-05-20T02:14:09.513Z,54.03
2017-05-20T02:14:23.743Z,54.22
2017-05-20T02:14:36.430Z,54.22
2017-05-20T02:14:49.459Z,54.03
2017-05-20T02:15:01.901Z,54.12
2017-05-20T02:15:15.301Z,54.12
2017-05-20T02:15:27.713Z,54.03
2017-05-20T02:15:41.328Z,53.93
2017-05-20T02:15:54.159Z,53.64
2017-05-20T02:16:07.044Z,53.83
2017-05-20T02:16:21.681Z,53.93
2017-05-20T02:16:35.296Z,54.32
2017-05-20T02:16:48.279Z,54.5
2017-05-20T02:17:01.127Z,54.6
2017-05-20T02:17:14.132Z,54.6
2017-05-20T02:17:27.675Z,54.89
2017-05-20T02:17:40.701Z,55.18
2017-05-20T02:17:54.155Z,55.27
2017-05-20T02:18:07.031Z,55.36
2017-05-20T02:18:20.742Z,55.46
2017-05-20T02:18:34.155Z,55.65
2017-05-20T02:18:47.093Z,55.85
2017-05-20T02:18:59.963Z,55.75
2017-05-20T02:19:13.451Z,55.94
2017-05-20T02:19:26.851Z,55.94
2017-05-20T02:19:40.270Z,56.13
2017-05-20T02:19:57.366Z,56.04
2017-05-20T02:20:09.205Z,56.04
2017-05-20T02:20:21.036Z,56.52
2017-05-20T02:20:35.813Z,56.42
2017-05-20T02:20:51.268Z,56.52
2017-05-20T02:21:04.752Z,56.52
2017-05-20T02:21:18.280Z,56.52
2017-05-20T02:21:32.974Z,56.42
2017-05-20T02:21:46.155Z,56.52
2017-05-20T02:21:59.135Z,56.61
2017-05-20T02:22:13.797Z,56.32
2017-05-20T02:22:31.759Z,56.42
2017-05-20T02:22:45.203Z,56.42
2017-05-20T02:23:02.781Z,56.52
2017-05-20T02:23:16.176Z,56.23
2017-05-20T02:23:30.758Z,56.42
2017-05-20T02:23:47.205Z,56.42
2017-05-20T02:24:00.265Z,56.32
2017-05-20T02:24:12.611Z,56.61
2017-05-20T02:24:25.995Z,56.42
2017-05-20T02:24:39.528Z,56.42
2017-05-20T02:24:51.973Z,56.32
2017-05-20T02:25:21.037Z,56.32
2017-05-20T02:25:40.458Z,56.23
2017-05-20T02:25:53.471Z,56.32
2017-05-20T02:26:06.670Z,56.42
2017-05-20T02:26:20.723Z,56.42
2017-05-20T02:26:34.260Z,56.52
2017-05-20T02:26:46.587Z,56.23
2017-05-20T02:27:00.218Z,56.42
2017-05-20T02:27:13.081Z,56.32
2017-05-20T02:27:26.520Z,56.42
2017-05-20T02:27:40.353Z,56.42
2017-05-20T02:27:53.821Z,56.42
2017-05-20T02:28:06.791Z,56.42
2017-05-20T02:28:20.208Z,56.52
2017-05-20T02:28:33.140Z,56.52
2017-05-20T02:28:45.550Z,56.42
2017-05-20T02:28:58.945Z,56.04
2017-05-20T02:29:10.808Z,56.23
2017-05-20T02:29:24.279Z,56.23
2017-05-20T02:29:37.696Z,56.13
2017-05-20T02:29:50.066Z,56.52
2017-05-20T02:30:03.620Z,56.32
2017-05-20T02:30:16.532Z,56.42
2017-05-20T02:30:30.044Z,56.32
2017-05-20T02:30:43.484Z,56.52
2017-05-20T02:30:55.824Z,56.52
2017-05-20T02:31:09.462Z,56.52
2017-05-20T02:31:22.345Z,56.32
2017-05-20T02:31:35.763Z,56.32
2017-05-20T02:31:48.174Z,56.32
2017-05-20T02:32:01.876Z,56.32
2017-05-20T02:32:15.337Z,56.42
2017-05-20T02:32:27.164Z,56.61
2017-05-20T02:32:39.035Z,56.32
2017-05-20T02:32:52.002Z,56.61
2017-05-20T02:33:05.487Z,56.52
2017-05-20T02:33:18.425Z,56.71
2017-05-20T02:33:31.393Z,56.99
2017-05-20T02:33:44.355Z,57.09
2017-05-20T02:33:57.297Z,56.9
2017-05-20T02:34:09.193Z,57.67
2017-05-20T02:34:27.718Z,58.24
2017-05-20T02:34:40.049Z,58.72
2017-05-20T02:34:52.338Z,59.3
2017-05-20T02:35:05.504Z,59.39
2017-05-20T02:35:18.997Z,59.77
2017-05-20T02:35:31.922Z,60.06
2017-05-20T02:35:44.869Z,60.54
2017-05-20T02:35:57.346Z,61.4
2017-05-20T02:36:09.186Z,61.21
2017-05-20T02:36:22.535Z,61.88
2017-05-20T02:36:35.438Z,61.88
2017-05-20T02:36:48.780Z,62.46
2017-05-20T02:37:01.705Z,62.36
2017-05-20T02:37:14.606Z,62.46
2017-05-20T02:37:28.032Z,62.93
2017-05-20T02:37:40.422Z,63.32
2017-05-20T02:37:53.351Z,63.42
2017-05-20T02:38:05.691Z,63.8
2017-05-20T02:38:18.149Z,63.8
2017-05-20T02:38:31.113Z,63.7
2017-05-20T02:38:44.630Z,63.6
2017-05-20T02:38:58.195Z,63.7
2017-05-20T02:39:12.634Z,63.8
2017-05-20T02:39:25.549Z,63.7
2017-05-20T02:39:38.477Z,63.89
2017-05-20T02:39:51.405Z,63.99
2017-05-20T02:40:05.075Z,64.18
2017-05-20T02:40:18.002Z,63.99
2017-05-20T02:40:31.018Z,64.18
2017-05-20T02:40:44.362Z,64.47
2017-05-20T02:40:56.797Z,64.37
2017-05-20T02:41:10.380Z,64.28
2017-05-20T02:41:23.206Z,63.99
2017-05-20T02:41:36.585Z,64.09
2017-05-20T02:41:48.899Z,64.18
2017-05-20T02:42:01.744Z,64.31
2017-05-20T02:42:14.242Z,64.28
2017-05-20T02:42:27.737Z,63.99
2017-05-20T02:42:40.677Z,64.28
2017-05-20T02:42:54.163Z,63.99
2017-05-20T02:43:07.099Z,64.18
2017-05-20T02:43:20.512Z,63.99
2017-05-20T02:43:32.928Z,63.99
2017-05-20T02:43:45.860Z,64.37
2017-05-20T02:43:58.814Z,64.18
2017-05-20T02:44:12.326Z,64.47
2017-05-20T02:44:25.755Z,64.09
2017-05-20T02:44:39.351Z,64.18
2017-05-20T02:44:52.217Z,64.28
2017-05-20T02:45:04.618Z,64.56
2017-05-20T02:45:18.049Z,64.47
2017-05-20T02:45:30.446Z,64.56
2017-05-20T02:45:43.432Z,64.66
2017-05-20T02:45:56.345Z,64.47
2017-05-20T02:46:08.420Z,64.56
2017-05-20T02:46:21.917Z,64.31
2017-05-20T02:46:35.357Z,64.28
2017-05-20T02:46:48.252Z,64.31
2017-05-20T02:47:00.606Z,64.28
2017-05-20T02:47:13.708Z,64.4
2017-05-20T02:47:26.039Z,63.89
2017-05-20T02:47:39.489Z,64.02
2017-05-20T02:47:51.379Z,63.99
2017-05-20T02:48:04.819Z,63.99
2017-05-20T02:48:39.926Z,64.56
2017-05-20T02:48:52.803Z,64.95
2017-05-20T02:49:06.038Z,64.89
2017-05-20T02:49:19.702Z,64.89
2017-05-20T02:49:33.238Z,64.66
2017-05-20T02:49:46.168Z,64.22
2017-05-20T02:49:59.082Z,64.09
2017-05-20T02:50:12.463Z,64.22
2017-05-20T02:50:25.366Z,64.28
2017-05-20T02:50:39.049Z,64.28
2017-05-20T02:50:53.888Z,64.02
2017-05-20T02:51:06.972Z,63.99
2017-05-20T02:51:20.594Z,64.09
2017-05-20T02:51:40.079Z,64.09
2017-05-20T02:51:57.489Z,63.99
2017-05-20T02:52:10.451Z,63.89
2017-05-20T02:52:21.854Z,63.99
2017-05-20T02:52:35.950Z,63.89
2017-05-20T02:52:49.382Z,63.8